sensor_id;sensor_type;location;lat;lon;timestamp;temperature;humidity
57709;SHT35;42558;52.388;13.390;2023-02-24T00:00:33;6.44;91.62
57709;SHT35;42558;52.388;13.390;2023-02-24T00:03:04;6.40;91.57
57709;SHT35;42558;52.388;13.390;2023-02-24T00:05:34;6.39;91.59
57709;SHT35;42558;52.388;13.390;2023-02-24T00:08:07;6.39;91.47
57709;SHT35;42558;52.388;13.390;2023-02-24T00:10:37;6.39;91.40
57709;SHT35;42558;52.388;13.390;2023-02-24T00:13:07;6.38;91.32
57709;SHT35;42558;52.388;13.390;2023-02-24T00:15:37;6.40;91.33
57709;SHT35;42558;52.388;13.390;2023-02-24T00:18:07;6.39;91.30
57709;SHT35;42558;52.388;13.390;2023-02-24T00:20:37;6.37;91.23
57709;SHT35;42558;52.388;13.390;2023-02-24T00:23:07;6.35;91.20
57709;SHT35;42558;52.388;13.390;2023-02-24T00:25:37;6.36;91.20
57709;SHT35;42558;52.388;13.390;2023-02-24T00:28:07;6.33;91.11
57709;SHT35;42558;52.388;13.390;2023-02-24T00:30:37;6.31;91.00
57709;SHT35;42558;52.388;13.390;2023-02-24T00:33:07;6.30;91.00
57709;SHT35;42558;52.388;13.390;2023-02-24T00:35:37;6.30;90.98
57709;SHT35;42558;52.388;13.390;2023-02-24T00:38:07;6.27;90.87
57709;SHT35;42558;52.388;13.390;2023-02-24T00:45:03;6.26;90.75
57709;SHT35;42558;52.388;13.390;2023-02-24T00:47:37;6.28;90.79
57709;SHT35;42558;52.388;13.390;2023-02-24T00:50:08;6.29;90.80
57709;SHT35;42558;52.388;13.390;2023-02-24T00:52:39;6.28;90.81
57709;SHT35;42558;52.388;13.390;2023-02-24T00:55:09;6.27;90.80
57709;SHT35;42558;52.388;13.390;2023-02-24T00:57:43;6.28;90.81
57709;SHT35;42558;52.388;13.390;2023-02-24T01:00:13;6.28;90.78
57709;SHT35;42558;52.388;13.390;2023-02-24T01:02:44;6.28;90.75
57709;SHT35;42558;52.388;13.390;2023-02-24T01:05:15;6.28;90.70
57709;SHT35;42558;52.388;13.390;2023-02-24T01:07:45;6.29;90.68
57709;SHT35;42558;52.388;13.390;2023-02-24T01:10:15;6.28;90.69
57709;SHT35;42558;52.388;13.390;2023-02-24T01:12:46;6.16;90.42
57709;SHT35;42558;52.388;13.390;2023-02-24T01:15:18;6.03;89.96
57709;SHT35;42558;52.388;13.390;2023-02-24T01:17:49;5.91;89.60
57709;SHT35;42558;52.388;13.390;2023-02-24T01:20:18;5.75;89.10
57709;SHT35;42558;52.388;13.390;2023-02-24T01:22:48;5.56;88.70
57709;SHT35;42558;52.388;13.390;2023-02-24T01:25:20;5.39;88.17
57709;SHT35;42558;52.388;13.390;2023-02-24T01:27:50;5.21;87.12
57709;SHT35;42558;52.388;13.390;2023-02-24T01:30:21;5.13;86.23
57709;SHT35;42558;52.388;13.390;2023-02-24T01:32:51;5.09;86.15
57709;SHT35;42558;52.388;13.390;2023-02-24T01:35:21;5.01;85.69
57709;SHT35;42558;52.388;13.390;2023-02-24T01:37:51;4.97;85.39
57709;SHT35;42558;52.388;13.390;2023-02-24T01:40:21;4.88;84.71
57709;SHT35;42558;52.388;13.390;2023-02-24T01:42:54;4.88;84.79
57709;SHT35;42558;52.388;13.390;2023-02-24T01:45:25;4.82;84.85
57709;SHT35;42558;52.388;13.390;2023-02-24T01:47:59;4.79;84.84
57709;SHT35;42558;52.388;13.390;2023-02-24T01:50:34;4.74;84.64
57709;SHT35;42558;52.388;13.390;2023-02-24T01:53:05;4.67;84.54
57709;SHT35;42558;52.388;13.390;2023-02-24T01:55:42;4.59;84.47
57709;SHT35;42558;52.388;13.390;2023-02-24T01:58:19;4.53;84.24
57709;SHT35;42558;52.388;13.390;2023-02-24T02:00:55;4.49;84.23
57709;SHT35;42558;52.388;13.390;2023-02-24T02:03:29;4.49;84.71
57709;SHT35;42558;52.388;13.390;2023-02-24T02:06:04;4.48;85.04
57709;SHT35;42558;52.388;13.390;2023-02-24T02:08:39;4.43;85.19
57709;SHT35;42558;52.388;13.390;2023-02-24T02:11:10;4.39;85.30
57709;SHT35;42558;52.388;13.390;2023-02-24T02:13:51;4.40;85.56
57709;SHT35;42558;52.388;13.390;2023-02-24T02:25:05;4.29;85.73
57709;SHT35;42558;52.388;13.390;2023-02-24T02:34:37;4.16;84.77
57709;SHT35;42558;52.388;13.390;2023-02-24T02:37:21;4.11;84.44
57709;SHT35;42558;52.388;13.390;2023-02-24T02:43:19;4.01;83.23
57709;SHT35;42558;52.388;13.390;2023-02-24T02:49:04;3.88;82.33
57709;SHT35;42558;52.388;13.390;2023-02-24T02:51:45;3.84;81.97
57709;SHT35;42558;52.388;13.390;2023-02-24T02:57:25;3.67;80.33
57709;SHT35;42558;52.388;13.390;2023-02-24T03:00:04;3.62;79.81
57709;SHT35;42558;52.388;13.390;2023-02-24T03:02:43;3.59;79.60
57709;SHT35;42558;52.388;13.390;2023-02-24T03:05:18;3.57;79.66
57709;SHT35;42558;52.388;13.390;2023-02-24T03:07:58;3.57;80.07
57709;SHT35;42558;52.388;13.390;2023-02-24T03:10:33;3.57;80.45
57709;SHT35;42558;52.388;13.390;2023-02-24T03:13:03;3.53;80.26
57709;SHT35;42558;52.388;13.390;2023-02-24T03:15:38;3.52;80.45
57709;SHT35;42558;52.388;13.390;2023-02-24T03:18:14;3.47;79.92
57709;SHT35;42558;52.388;13.390;2023-02-24T03:21:07;3.49;80.63
57709;SHT35;42558;52.388;13.390;2023-02-24T03:23:47;3.46;80.17
57709;SHT35;42558;52.388;13.390;2023-02-24T03:26:36;3.46;80.39
57709;SHT35;42558;52.388;13.390;2023-02-24T03:32:19;3.42;79.71
57709;SHT35;42558;52.388;13.390;2023-02-24T03:35:07;3.42;79.87
57709;SHT35;42558;52.388;13.390;2023-02-24T03:37:45;3.40;79.99
57709;SHT35;42558;52.388;13.390;2023-02-24T03:40:15;3.36;79.75
57709;SHT35;42558;52.388;13.390;2023-02-24T03:42:47;3.34;79.55
57709;SHT35;42558;52.388;13.390;2023-02-24T03:45:36;3.33;79.94
57709;SHT35;42558;52.388;13.390;2023-02-24T03:48:09;3.29;79.80
57709;SHT35;42558;52.388;13.390;2023-02-24T03:50:40;3.28;79.34
57709;SHT35;42558;52.388;13.390;2023-02-24T03:56:35;3.26;79.26
57709;SHT35;42558;52.388;13.390;2023-02-24T04:03:00;3.26;79.53
57709;SHT35;42558;52.388;13.390;2023-02-24T04:05:50;3.29;79.73
57709;SHT35;42558;52.388;13.390;2023-02-24T04:11:48;3.23;79.04
57709;SHT35;42558;52.388;13.390;2023-02-24T04:17:47;3.26;79.04
57709;SHT35;42558;52.388;13.390;2023-02-24T04:20:23;3.24;78.51
57709;SHT35;42558;52.388;13.390;2023-02-24T04:23:03;3.25;78.49
57709;SHT35;42558;52.388;13.390;2023-02-24T04:25:41;3.25;78.60
57709;SHT35;42558;52.388;13.390;2023-02-24T04:28:16;3.23;78.93
57709;SHT35;42558;52.388;13.390;2023-02-24T04:30:50;3.21;79.01
57709;SHT35;42558;52.388;13.390;2023-02-24T04:33:27;3.20;78.73
57709;SHT35;42558;52.388;13.390;2023-02-24T04:35:57;3.20;78.77
57709;SHT35;42558;52.388;13.390;2023-02-24T04:38:28;3.21;78.77
57709;SHT35;42558;52.388;13.390;2023-02-24T04:40:58;3.20;78.25
57709;SHT35;42558;52.388;13.390;2023-02-24T04:43:27;3.20;78.10
57709;SHT35;42558;52.388;13.390;2023-02-24T04:45:57;3.20;78.25
57709;SHT35;42558;52.388;13.390;2023-02-24T04:48:27;3.19;78.07
57709;SHT35;42558;52.388;13.390;2023-02-24T04:50:59;3.17;77.97
57709;SHT35;42558;52.388;13.390;2023-02-24T04:53:31;3.16;78.18
57709;SHT35;42558;52.388;13.390;2023-02-24T04:56:02;3.16;78.67
57709;SHT35;42558;52.388;13.390;2023-02-24T04:58:38;3.15;78.63
57709;SHT35;42558;52.388;13.390;2023-02-24T05:01:09;3.18;79.09
57709;SHT35;42558;52.388;13.390;2023-02-24T05:03:39;3.15;79.20
57709;SHT35;42558;52.388;13.390;2023-02-24T05:06:13;3.15;79.11
57709;SHT35;42558;52.388;13.390;2023-02-24T05:08:46;3.13;78.98
57709;SHT35;42558;52.388;13.390;2023-02-24T05:11:15;3.14;79.41
57709;SHT35;42558;52.388;13.390;2023-02-24T05:13:46;3.11;79.50
57709;SHT35;42558;52.388;13.390;2023-02-24T05:16:16;3.10;79.10
57709;SHT35;42558;52.388;13.390;2023-02-24T05:18:48;3.10;79.37
57709;SHT35;42558;52.388;13.390;2023-02-24T05:21:18;3.10;79.35
57709;SHT35;42558;52.388;13.390;2023-02-24T05:24:06;3.10;78.45
57709;SHT35;42558;52.388;13.390;2023-02-24T05:26:37;3.11;78.07
57709;SHT35;42558;52.388;13.390;2023-02-24T05:29:10;3.12;77.98
57709;SHT35;42558;52.388;13.390;2023-02-24T05:31:40;3.10;78.32
57709;SHT35;42558;52.388;13.390;2023-02-24T05:34:10;3.10;78.90
57709;SHT35;42558;52.388;13.390;2023-02-24T05:36:44;3.10;79.24
57709;SHT35;42558;52.388;13.390;2023-02-24T05:39:13;3.06;79.06
57709;SHT35;42558;52.388;13.390;2023-02-24T05:41:47;3.04;78.58
57709;SHT35;42558;52.388;13.390;2023-02-24T05:44:17;3.06;78.12
57709;SHT35;42558;52.388;13.390;2023-02-24T05:46:51;3.06;78.47
57709;SHT35;42558;52.388;13.390;2023-02-24T05:49:27;3.03;78.25
57709;SHT35;42558;52.388;13.390;2023-02-24T05:52:01;3.05;78.00
57709;SHT35;42558;52.388;13.390;2023-02-24T05:54:41;3.03;77.90
57709;SHT35;42558;52.388;13.390;2023-02-24T05:57:11;3.05;78.42
57709;SHT35;42558;52.388;13.390;2023-02-24T05:59:50;3.05;78.57
57709;SHT35;42558;52.388;13.390;2023-02-24T06:02:19;3.05;78.32
57709;SHT35;42558;52.388;13.390;2023-02-24T06:04:54;3.04;78.52
57709;SHT35;42558;52.388;13.390;2023-02-24T06:07:26;3.05;78.69
57709;SHT35;42558;52.388;13.390;2023-02-24T06:09:59;3.07;78.26
57709;SHT35;42558;52.388;13.390;2023-02-24T06:12:31;3.06;78.07
57709;SHT35;42558;52.388;13.390;2023-02-24T06:15:02;3.05;78.01
57709;SHT35;42558;52.388;13.390;2023-02-24T06:17:34;3.04;77.37
57709;SHT35;42558;52.388;13.390;2023-02-24T06:20:04;3.07;77.55
57709;SHT35;42558;52.388;13.390;2023-02-24T06:22:42;3.10;77.63
57709;SHT35;42558;52.388;13.390;2023-02-24T06:25:12;3.10;77.90
57709;SHT35;42558;52.388;13.390;2023-02-24T06:27:42;3.12;78.23
57709;SHT35;42558;52.388;13.390;2023-02-24T06:30:12;3.10;78.23
57709;SHT35;42558;52.388;13.390;2023-02-24T06:32:42;3.10;78.26
57709;SHT35;42558;52.388;13.390;2023-02-24T06:35:13;3.12;78.65
57709;SHT35;42558;52.388;13.390;2023-02-24T06:37:43;3.14;78.70
57709;SHT35;42558;52.388;13.390;2023-02-24T06:40:13;3.10;78.53
57709;SHT35;42558;52.388;13.390;2023-02-24T06:42:48;3.14;78.11
57709;SHT35;42558;52.388;13.390;2023-02-24T06:45:21;3.19;78.41
57709;SHT35;42558;52.388;13.390;2023-02-24T06:47:51;3.21;78.61
57709;SHT35;42558;52.388;13.390;2023-02-24T06:50:19;3.21;78.91
57709;SHT35;42558;52.388;13.390;2023-02-24T06:52:49;3.21;78.39
57709;SHT35;42558;52.388;13.390;2023-02-24T06:55:28;3.24;77.76
57709;SHT35;42558;52.388;13.390;2023-02-24T06:57:57;3.27;77.56
57709;SHT35;42558;52.388;13.390;2023-02-24T07:00:33;3.26;76.83
57709;SHT35;42558;52.388;13.390;2023-02-24T07:03:13;3.27;75.89
57709;SHT35;42558;52.388;13.390;2023-02-24T07:05:46;3.30;75.28
57709;SHT35;42558;52.388;13.390;2023-02-24T07:08:39;3.32;75.99
57709;SHT35;42558;52.388;13.390;2023-02-24T07:11:09;3.32;75.64
57709;SHT35;42558;52.388;13.390;2023-02-24T07:13:38;3.33;75.71
57709;SHT35;42558;52.388;13.390;2023-02-24T07:16:06;3.39;75.61
57709;SHT35;42558;52.388;13.390;2023-02-24T07:18:35;3.41;75.16
57709;SHT35;42558;52.388;13.390;2023-02-24T07:21:11;3.43;73.59
57709;SHT35;42558;52.388;13.390;2023-02-24T07:23:41;3.41;71.41
57709;SHT35;42558;52.388;13.390;2023-02-24T07:26:17;3.42;73.03
57709;SHT35;42558;52.388;13.390;2023-02-24T07:28:51;3.44;73.96
57709;SHT35;42558;52.388;13.390;2023-02-24T07:31:23;3.44;72.09
57709;SHT35;42558;52.388;13.390;2023-02-24T07:33:54;3.43;71.40
57709;SHT35;42558;52.388;13.390;2023-02-24T07:36:28;3.45;71.87
57709;SHT35;42558;52.388;13.390;2023-02-24T07:39:00;3.48;72.27
57709;SHT35;42558;52.388;13.390;2023-02-24T07:41:31;3.50;72.33
57709;SHT35;42558;52.388;13.390;2023-02-24T07:43:58;3.53;72.11
57709;SHT35;42558;52.388;13.390;2023-02-24T07:46:30;3.55;72.16
57709;SHT35;42558;52.388;13.390;2023-02-24T07:49:01;3.52;72.27
57709;SHT35;42558;52.388;13.390;2023-02-24T07:51:31;3.52;72.89
57709;SHT35;42558;52.388;13.390;2023-02-24T07:54:01;3.56;72.72
57709;SHT35;42558;52.388;13.390;2023-02-24T07:56:31;3.59;72.78
57709;SHT35;42558;52.388;13.390;2023-02-24T07:59:02;3.59;73.15
57709;SHT35;42558;52.388;13.390;2023-02-24T08:01:36;3.65;73.50
57709;SHT35;42558;52.388;13.390;2023-02-24T08:04:09;3.67;73.82
57709;SHT35;42558;52.388;13.390;2023-02-24T08:06:40;3.73;73.09
57709;SHT35;42558;52.388;13.390;2023-02-24T08:09:15;3.74;72.84
57709;SHT35;42558;52.388;13.390;2023-02-24T08:11:49;3.79;72.77
57709;SHT35;42558;52.388;13.390;2023-02-24T08:14:29;3.93;73.27
57709;SHT35;42558;52.388;13.390;2023-02-24T08:17:03;3.85;71.87
57709;SHT35;42558;52.388;13.390;2023-02-24T08:19:32;3.79;71.01
57709;SHT35;42558;52.388;13.390;2023-02-24T08:22:10;3.83;71.94
57709;SHT35;42558;52.388;13.390;2023-02-24T08:24:55;3.79;71.91
57709;SHT35;42558;52.388;13.390;2023-02-24T08:27:34;3.83;72.80
57709;SHT35;42558;52.388;13.390;2023-02-24T08:30:11;3.74;71.56
57709;SHT35;42558;52.388;13.390;2023-02-24T08:33:05;3.70;71.89
57709;SHT35;42558;52.388;13.390;2023-02-24T08:35:40;3.65;71.70
57709;SHT35;42558;52.388;13.390;2023-02-24T08:38:15;3.68;72.24
57709;SHT35;42558;52.388;13.390;2023-02-24T08:40:48;3.66;72.45
57709;SHT35;42558;52.388;13.390;2023-02-24T08:48:43;3.70;71.58
57709;SHT35;42558;52.388;13.390;2023-02-24T08:54:04;3.73;71.93
57709;SHT35;42558;52.388;13.390;2023-02-24T08:56:40;3.78;72.41
57709;SHT35;42558;52.388;13.390;2023-02-24T08:59:17;3.85;72.20
57709;SHT35;42558;52.388;13.390;2023-02-24T09:01:58;3.89;71.77
57709;SHT35;42558;52.388;13.390;2023-02-24T09:04:47;4.05;71.37
57709;SHT35;42558;52.388;13.390;2023-02-24T09:07:22;4.21;70.66
57709;SHT35;42558;52.388;13.390;2023-02-24T09:09:58;4.32;70.58
57709;SHT35;42558;52.388;13.390;2023-02-24T09:12:28;4.21;68.83
57709;SHT35;42558;52.388;13.390;2023-02-24T09:15:02;4.34;69.38
57709;SHT35;42558;52.388;13.390;2023-02-24T09:17:33;4.40;69.66
57709;SHT35;42558;52.388;13.390;2023-02-24T09:20:22;4.41;69.39
57709;SHT35;42558;52.388;13.390;2023-02-24T09:22:56;4.40;69.13
57709;SHT35;42558;52.388;13.390;2023-02-24T09:25:30;4.49;70.48
57709;SHT35;42558;52.388;13.390;2023-02-24T09:28:13;4.52;69.90
57709;SHT35;42558;52.388;13.390;2023-02-24T09:33:34;4.51;69.48
57709;SHT35;42558;52.388;13.390;2023-02-24T09:36:11;4.53;68.90
57709;SHT35;42558;52.388;13.390;2023-02-24T09:39:01;4.58;68.67
57709;SHT35;42558;52.388;13.390;2023-02-24T09:41:34;4.47;67.64
57709;SHT35;42558;52.388;13.390;2023-02-24T09:44:32;4.56;68.81
57709;SHT35;42558;52.388;13.390;2023-02-24T09:50:02;4.48;67.01
57709;SHT35;42558;52.388;13.390;2023-02-24T09:53:08;4.51;67.97
57709;SHT35;42558;52.388;13.390;2023-02-24T09:56:11;4.61;68.28
57709;SHT35;42558;52.388;13.390;2023-02-24T09:59:18;4.69;67.73
57709;SHT35;42558;52.388;13.390;2023-02-24T10:02:29;4.59;66.43
57709;SHT35;42558;52.388;13.390;2023-02-24T10:08:25;4.73;66.81
57709;SHT35;42558;52.388;13.390;2023-02-24T10:11:02;4.91;67.33
57709;SHT35;42558;52.388;13.390;2023-02-24T10:13:41;5.04;66.84
57709;SHT35;42558;52.388;13.390;2023-02-24T10:16:18;5.03;66.35
57709;SHT35;42558;52.388;13.390;2023-02-24T10:18:59;4.96;65.76
57709;SHT35;42558;52.388;13.390;2023-02-24T10:21:59;5.10;66.06
57709;SHT35;42558;52.388;13.390;2023-02-24T10:25:21;5.06;65.00
57709;SHT35;42558;52.388;13.390;2023-02-24T10:31:48;5.34;65.97
57709;SHT35;42558;52.388;13.390;2023-02-24T10:34:26;5.22;63.91
57709;SHT35;42558;52.388;13.390;2023-02-24T10:37:15;5.25;65.28
57709;SHT35;42558;52.388;13.390;2023-02-24T10:39:58;5.32;64.77
57709;SHT35;42558;52.388;13.390;2023-02-24T10:42:39;5.36;64.44
57709;SHT35;42558;52.388;13.390;2023-02-24T10:45:24;5.41;65.08
57709;SHT35;42558;52.388;13.390;2023-02-24T10:48:05;5.40;64.75
57709;SHT35;42558;52.388;13.390;2023-02-24T10:50:42;5.39;64.65
57709;SHT35;42558;52.388;13.390;2023-02-24T10:53:25;5.23;64.33
57709;SHT35;42558;52.388;13.390;2023-02-24T10:56:06;5.28;65.17
57709;SHT35;42558;52.388;13.390;2023-02-24T10:58:59;5.23;64.29
57709;SHT35;42558;52.388;13.390;2023-02-24T11:01:55;5.21;65.02
57709;SHT35;42558;52.388;13.390;2023-02-24T11:04:58;5.01;64.90
57709;SHT35;42558;52.388;13.390;2023-02-24T11:08:05;4.92;66.45
57709;SHT35;42558;52.388;13.390;2023-02-24T11:10:54;4.92;66.94
57709;SHT35;42558;52.388;13.390;2023-02-24T11:13:35;4.75;68.65
57709;SHT35;42558;52.388;13.390;2023-02-24T11:16:24;4.59;69.08
57709;SHT35;42558;52.388;13.390;2023-02-24T11:19:25;4.31;71.81
57709;SHT35;42558;52.388;13.390;2023-02-24T11:21:59;4.11;74.24
57709;SHT35;42558;52.388;13.390;2023-02-24T11:24:30;3.92;75.19
57709;SHT35;42558;52.388;13.390;2023-02-24T11:26:59;3.81;76.10
57709;SHT35;42558;52.388;13.390;2023-02-24T11:35:45;3.65;79.63
57709;SHT35;42558;52.388;13.390;2023-02-24T11:38:39;3.58;80.40
57709;SHT35;42558;52.388;13.390;2023-02-24T11:41:26;3.44;81.21
57709;SHT35;42558;52.388;13.390;2023-02-24T11:44:04;3.19;81.95
57709;SHT35;42558;52.388;13.390;2023-02-24T11:46:51;3.40;83.04
57709;SHT35;42558;52.388;13.390;2023-02-24T11:49:35;3.49;82.81
57709;SHT35;42558;52.388;13.390;2023-02-24T11:52:13;3.34;82.84
57709;SHT35;42558;52.388;13.390;2023-02-24T11:54:51;3.40;83.38
57709;SHT35;42558;52.388;13.390;2023-02-24T12:00:14;3.20;83.64
57709;SHT35;42558;52.388;13.390;2023-02-24T12:05:53;3.34;84.57
57709;SHT35;42558;52.388;13.390;2023-02-24T12:08:34;3.15;84.96
57709;SHT35;42558;52.388;13.390;2023-02-24T12:20:35;2.83;85.58
57709;SHT35;42558;52.388;13.390;2023-02-24T12:23:16;2.77;86.15
57709;SHT35;42558;52.388;13.390;2023-02-24T12:26:06;2.83;86.97
57709;SHT35;42558;52.388;13.390;2023-02-24T12:32:12;2.71;86.70
57709;SHT35;42558;52.388;13.390;2023-02-24T12:46:37;2.70;86.59
57709;SHT35;42558;52.388;13.390;2023-02-24T12:49:17;2.69;86.71
57709;SHT35;42558;52.388;13.390;2023-02-24T12:54:41;2.66;87.14
57709;SHT35;42558;52.388;13.390;2023-02-24T13:06:52;2.63;87.54
57709;SHT35;42558;52.388;13.390;2023-02-24T13:15:19;2.61;88.16
57709;SHT35;42558;52.388;13.390;2023-02-24T13:17:53;2.59;88.30
57709;SHT35;42558;52.388;13.390;2023-02-24T13:20:28;2.57;88.11
57709;SHT35;42558;52.388;13.390;2023-02-24T13:23:00;2.60;88.29
57709;SHT35;42558;52.388;13.390;2023-02-24T13:25:51;2.64;88.29
57709;SHT35;42558;52.388;13.390;2023-02-24T13:28:33;2.60;88.41
57709;SHT35;42558;52.388;13.390;2023-02-24T13:31:07;2.66;88.37
57709;SHT35;42558;52.388;13.390;2023-02-24T13:33:42;2.60;88.21
57709;SHT35;42558;52.388;13.390;2023-02-24T13:36:20;2.65;88.37
57709;SHT35;42558;52.388;13.390;2023-02-24T13:41:48;2.61;88.29
57709;SHT35;42558;52.388;13.390;2023-02-24T13:44:29;2.59;88.17
57709;SHT35;42558;52.388;13.390;2023-02-24T14:03:43;2.50;88.72
57709;SHT35;42558;52.388;13.390;2023-02-24T14:06:31;2.53;89.08
57709;SHT35;42558;52.388;13.390;2023-02-24T14:09:02;2.58;89.13
57709;SHT35;42558;52.388;13.390;2023-02-24T14:11:35;2.59;88.93
57709;SHT35;42558;52.388;13.390;2023-02-24T14:14:06;2.49;88.59
57709;SHT35;42558;52.388;13.390;2023-02-24T14:16:47;2.49;88.94
57709;SHT35;42558;52.388;13.390;2023-02-24T14:19:19;2.44;88.90
57709;SHT35;42558;52.388;13.390;2023-02-24T14:21:54;2.43;88.98
57709;SHT35;42558;52.388;13.390;2023-02-24T14:24:27;2.50;89.27
57709;SHT35;42558;52.388;13.390;2023-02-24T14:26:57;2.50;89.21
57709;SHT35;42558;52.388;13.390;2023-02-24T14:29:30;2.53;89.27
57709;SHT35;42558;52.388;13.390;2023-02-24T14:32:19;2.51;89.31
57709;SHT35;42558;52.388;13.390;2023-02-24T14:34:52;2.48;89.36
57709;SHT35;42558;52.388;13.390;2023-02-24T14:37:24;2.47;89.26
57709;SHT35;42558;52.388;13.390;2023-02-24T14:39:59;2.53;89.52
57709;SHT35;42558;52.388;13.390;2023-02-24T14:42:33;2.57;89.65
57709;SHT35;42558;52.388;13.390;2023-02-24T14:45:14;2.57;89.54
57709;SHT35;42558;52.388;13.390;2023-02-24T14:47:47;2.56;89.62
57709;SHT35;42558;52.388;13.390;2023-02-24T14:50:18;2.53;89.32
57709;SHT35;42558;52.388;13.390;2023-02-24T14:52:56;2.55;89.31
57709;SHT35;42558;52.388;13.390;2023-02-24T14:55:30;2.57;89.32
57709;SHT35;42558;52.388;13.390;2023-02-24T15:01:19;2.46;89.37
57709;SHT35;42558;52.388;13.390;2023-02-24T15:03:59;2.38;89.48
57709;SHT35;42558;52.388;13.390;2023-02-24T15:06:43;2.36;89.72
57709;SHT35;42558;52.388;13.390;2023-02-24T15:09:15;2.39;90.01
57709;SHT35;42558;52.388;13.390;2023-02-24T15:11:49;2.34;90.08
57709;SHT35;42558;52.388;13.390;2023-02-24T15:14:27;2.24;90.02
57709;SHT35;42558;52.388;13.390;2023-02-24T15:17:02;2.24;90.14
57709;SHT35;42558;52.388;13.390;2023-02-24T15:19:44;2.24;90.25
57709;SHT35;42558;52.388;13.390;2023-02-24T15:33:37;2.29;90.70
57709;SHT35;42558;52.388;13.390;2023-02-24T15:36:15;2.23;90.63
57709;SHT35;42558;52.388;13.390;2023-02-24T15:38:50;2.21;90.61
57709;SHT35;42558;52.388;13.390;2023-02-24T15:41:37;2.23;90.64
57709;SHT35;42558;52.388;13.390;2023-02-24T15:44:28;2.25;90.70
57709;SHT35;42558;52.388;13.390;2023-02-24T15:47:18;2.21;90.70
57709;SHT35;42558;52.388;13.390;2023-02-24T15:50:09;2.25;90.80
57709;SHT35;42558;52.388;13.390;2023-02-24T15:52:41;2.26;90.80
57709;SHT35;42558;52.388;13.390;2023-02-24T15:55:13;2.28;90.90
57709;SHT35;42558;52.388;13.390;2023-02-24T15:57:46;2.25;90.85
57709;SHT35;42558;52.388;13.390;2023-02-24T16:08:43;2.31;91.01
57709;SHT35;42558;52.388;13.390;2023-02-24T16:11:15;2.34;90.96
57709;SHT35;42558;52.388;13.390;2023-02-24T16:13:50;2.34;90.88
57709;SHT35;42558;52.388;13.390;2023-02-24T16:16:25;2.40;90.85
57709;SHT35;42558;52.388;13.390;2023-02-24T16:18:56;2.44;90.82
57709;SHT35;42558;52.388;13.390;2023-02-24T16:21:26;2.43;90.76
57709;SHT35;42558;52.388;13.390;2023-02-24T16:23:55;2.42;90.52
57709;SHT35;42558;52.388;13.390;2023-02-24T16:26:25;2.43;90.29
57709;SHT35;42558;52.388;13.390;2023-02-24T16:28:56;2.48;90.22
57709;SHT35;42558;52.388;13.390;2023-02-24T16:31:27;2.51;90.10
57709;SHT35;42558;52.388;13.390;2023-02-24T16:33:57;2.51;90.12
57709;SHT35;42558;52.388;13.390;2023-02-24T16:36:27;2.54;90.20
57709;SHT35;42558;52.388;13.390;2023-02-24T16:38:57;2.54;90.25
57709;SHT35;42558;52.388;13.390;2023-02-24T16:41:29;2.54;90.24
57709;SHT35;42558;52.388;13.390;2023-02-24T16:43:59;2.55;90.17
57709;SHT35;42558;52.388;13.390;2023-02-24T16:46:31;2.55;90.05
57709;SHT35;42558;52.388;13.390;2023-02-24T16:49:07;2.58;90.01
57709;SHT35;42558;52.388;13.390;2023-02-24T16:51:46;2.55;89.86
57709;SHT35;42558;52.388;13.390;2023-02-24T16:54:16;2.56;89.87
57709;SHT35;42558;52.388;13.390;2023-02-24T16:56:44;2.59;89.85
57709;SHT35;42558;52.388;13.390;2023-02-24T16:59:12;2.61;89.89
57709;SHT35;42558;52.388;13.390;2023-02-24T17:01:41;2.61;90.04
57709;SHT35;42558;52.388;13.390;2023-02-24T17:04:09;2.60;89.99
57709;SHT35;42558;52.388;13.390;2023-02-24T17:06:41;2.60;89.99
57709;SHT35;42558;52.388;13.390;2023-02-24T17:09:09;2.60;89.93
57709;SHT35;42558;52.388;13.390;2023-02-24T17:11:37;2.62;90.04
57709;SHT35;42558;52.388;13.390;2023-02-24T17:14:06;2.59;89.92
57709;SHT35;42558;52.388;13.390;2023-02-24T17:16:43;2.61;89.98
57709;SHT35;42558;52.388;13.390;2023-02-24T17:19:13;2.62;89.92
57709;SHT35;42558;52.388;13.390;2023-02-24T17:21:44;2.63;89.88
57709;SHT35;42558;52.388;13.390;2023-02-24T17:24:14;2.62;89.82
57709;SHT35;42558;52.388;13.390;2023-02-24T17:26:48;2.65;89.89
57709;SHT35;42558;52.388;13.390;2023-02-24T17:29:18;2.64;89.90
57709;SHT35;42558;52.388;13.390;2023-02-24T17:31:48;2.66;89.98
57709;SHT35;42558;52.388;13.390;2023-02-24T17:34:18;2.65;89.88
57709;SHT35;42558;52.388;13.390;2023-02-24T17:36:49;2.65;89.82
57709;SHT35;42558;52.388;13.390;2023-02-24T17:39:18;2.66;89.69
57709;SHT35;42558;52.388;13.390;2023-02-24T17:41:46;2.69;89.65
57709;SHT35;42558;52.388;13.390;2023-02-24T17:44:14;2.70;89.61
57709;SHT35;42558;52.388;13.390;2023-02-24T17:46:43;2.71;89.61
57709;SHT35;42558;52.388;13.390;2023-02-24T17:49:11;2.72;89.63
57709;SHT35;42558;52.388;13.390;2023-02-24T17:51:40;2.73;89.68
57709;SHT35;42558;52.388;13.390;2023-02-24T17:54:08;2.73;89.69
57709;SHT35;42558;52.388;13.390;2023-02-24T17:56:36;2.75;89.69
57709;SHT35;42558;52.388;13.390;2023-02-24T17:59:05;2.78;89.71
57709;SHT35;42558;52.388;13.390;2023-02-24T18:01:33;2.79;89.82
57709;SHT35;42558;52.388;13.390;2023-02-24T18:04:02;2.73;89.99
57709;SHT35;42558;52.388;13.390;2023-02-24T18:06:30;2.72;90.10
57709;SHT35;42558;52.388;13.390;2023-02-24T18:08:59;2.74;90.12
57709;SHT35;42558;52.388;13.390;2023-02-24T18:11:27;2.76;90.11
57709;SHT35;42558;52.388;13.390;2023-02-24T18:13:57;2.78;90.22
57709;SHT35;42558;52.388;13.390;2023-02-24T18:16:29;2.78;90.42
57709;SHT35;42558;52.388;13.390;2023-02-24T18:18:59;2.79;90.48
57709;SHT35;42558;52.388;13.390;2023-02-24T18:21:29;2.78;90.48
57709;SHT35;42558;52.388;13.390;2023-02-24T18:23:58;2.81;90.50
57709;SHT35;42558;52.388;13.390;2023-02-24T18:26:28;2.83;90.51
57709;SHT35;42558;52.388;13.390;2023-02-24T18:29:00;2.79;90.43
57709;SHT35;42558;52.388;13.390;2023-02-24T18:31:31;2.82;90.47
57709;SHT35;42558;52.388;13.390;2023-02-24T18:34:04;2.86;90.50
57709;SHT35;42558;52.388;13.390;2023-02-24T18:36:34;2.88;90.46
57709;SHT35;42558;52.388;13.390;2023-02-24T18:39:04;2.86;90.30
57709;SHT35;42558;52.388;13.390;2023-02-24T18:41:34;2.87;90.16
57709;SHT35;42558;52.388;13.390;2023-02-24T18:44:04;2.88;90.00
57709;SHT35;42558;52.388;13.390;2023-02-24T18:46:35;2.92;89.97
57709;SHT35;42558;52.388;13.390;2023-02-24T18:49:06;2.92;89.93
57709;SHT35;42558;52.388;13.390;2023-02-24T18:51:37;2.92;89.85
57709;SHT35;42558;52.388;13.390;2023-02-24T18:54:07;2.95;89.86
57709;SHT35;42558;52.388;13.390;2023-02-24T18:56:39;2.94;89.89
57709;SHT35;42558;52.388;13.390;2023-02-24T18:59:09;2.94;89.99
57709;SHT35;42558;52.388;13.390;2023-02-24T19:01:39;2.92;90.01
57709;SHT35;42558;52.388;13.390;2023-02-24T19:04:09;2.95;90.07